メインページ
METAR-TAF:

METAR-TAF

空港 :

Killarney, アイルランド

緯度: 52-10-51N, 経度: 9-31-26W, 海抜: 34m

現時点の気象観測

当レポートは35分前の17:00(UTC)に作成
南西の風 4kt、南/南東から西の間で変化する
気温 15°C
湿度 77%
気圧 1030 hPa
視程10km以上
高度2300ftの雲は散在している
高度3000ftの千切れ雲あり

METAR: EIKY 251700Z 22004KT 160V270 9999 SCT023 BKN030 15/11 Q1030

時間: 18:35 (17:35 UTC)

予報

当レポートは3時間35分前の14:00(UTC)に作成
予報は25日の 15時(UTC)から 25日の 21時(UTC)まで有効
の風 15kt
視程10km以上
高度2500ftの雲は散在している
確率 30% :
25日の 15時(UTC)から 25日の 21時(UTC)まで一時的に
視程: 4500m
小雨, 霧雨
25日の 15時(UTC)から 25日の 18時(UTC)まで一時的に
南/南西の風 18kt、最大28ktの突風を伴う
25日の 18時(UTC)から 25日の 21時(UTC)まで徐々に
南/南西の風 10kt

TAF: EIKY 251400Z 2515/2521 19015KT 9999 SCT025 PROB30 TEMPO 2515/2521 4500 -RADZ TEMPO 2515/2518 20018G28KT BECMG 2518/2521 20010KT

4,000以上の空港の気象観測と天気予報(METAR報とTAF報)

利用可能な観測所は地図上に黄色い丸と赤い丸で示す。

丸の上にカーソルを重ねると観測所名を参照できる。

次にクリックすると気象観測と天気予報を参照できる。

マップの切り替え:黒色「×」印の緑ボタンをクリックして拡大、「-」印の緑ボタンをクリックして縮小、緑色の三角印をクリックして隣りの地図に切り替え


METAR-TAF: